createdAt,value
2018-03-02T00:00:37.621Z,17.12
2018-03-02T00:03:05.143Z,17.10
2018-03-02T00:05:32.672Z,17.95
2018-03-02T00:08:00.197Z,18.40
2018-03-02T00:10:27.705Z,18.10
2018-03-02T00:12:55.221Z,16.65
2018-03-02T00:15:22.720Z,18.33
2018-03-02T00:17:50.239Z,17.77
2018-03-02T00:20:17.747Z,18.45
2018-03-02T00:22:45.256Z,16.83
2018-03-02T00:25:12.764Z,17.73
2018-03-02T00:27:40.261Z,17.67
2018-03-02T00:30:07.786Z,17.92
2018-03-02T00:32:35.301Z,18.30
2018-03-02T00:35:02.794Z,18.52
2018-03-02T00:37:30.287Z,17.25
2018-03-02T00:39:57.789Z,18.55
2018-03-02T00:42:25.356Z,17.60
2018-03-02T00:44:52.851Z,16.65
2018-03-02T00:47:20.364Z,17.67
2018-03-02T00:49:47.878Z,17.60
2018-03-02T00:52:15.370Z,17.15
2018-03-02T00:54:42.866Z,17.55
2018-03-02T00:57:10.397Z,18.23
2018-03-02T00:59:37.912Z,17.62
2018-03-02T01:02:05.432Z,18.75
2018-03-02T01:04:32.937Z,18.17
2018-03-02T01:07:00.425Z,17.55
2018-03-02T01:09:27.942Z,18.35
2018-03-02T01:11:55.437Z,18.95
2018-03-02T01:14:22.936Z,18.77
2018-03-02T01:16:50.430Z,16.05
2018-03-02T01:19:17.936Z,17.62
2018-03-02T01:21:45.428Z,17.70
2018-03-02T01:24:12.730Z,16.95
2018-03-02T01:26:40.037Z,16.60
2018-03-02T01:29:08.262Z,17.02
2018-03-02T01:31:35.576Z,17.20
2018-03-02T01:34:03.074Z,17.35
2018-03-02T01:36:30.735Z,16.27
2018-03-02T01:38:58.269Z,18.62
2018-03-02T01:41:25.570Z,15.85
2018-03-02T01:43:53.077Z,17.85
2018-03-02T01:46:20.606Z,18.80
2018-03-02T01:48:48.108Z,18.87
2018-03-02T01:51:21.261Z,16.52
2018-03-02T01:53:48.836Z,17.00
2018-03-02T01:56:16.922Z,18.15
2018-03-02T01:58:44.421Z,17.23
2018-03-02T02:01:11.903Z,18.33
2018-03-02T02:03:39.405Z,16.42
2018-03-02T02:06:06.926Z,18.85
2018-03-02T02:08:34.450Z,18.05
2018-03-02T02:11:01.940Z,17.65
2018-03-02T02:13:29.432Z,18.90
2018-03-02T02:15:56.949Z,19.70
2018-03-02T02:18:24.504Z,18.55
2018-03-02T02:20:52.057Z,17.85
2018-03-02T02:23:19.557Z,18.08
2018-03-02T02:25:47.048Z,18.27
2018-03-02T02:28:14.539Z,18.98
2018-03-02T02:30:42.053Z,19.73
2018-03-02T02:33:09.542Z,18.42
2018-03-02T02:35:37.033Z,18.73
2018-03-02T02:38:04.521Z,18.90
2018-03-02T02:40:32.098Z,18.25
2018-03-02T02:42:59.596Z,18.55
2018-03-02T02:45:27.097Z,19.12
2018-03-02T02:47:54.624Z,19.85
2018-03-02T02:50:22.119Z,19.73
2018-03-02T02:52:49.613Z,17.45
2018-03-02T02:55:17.109Z,19.80
2018-03-02T02:57:44.608Z,17.48
2018-03-02T03:00:12.107Z,18.00
2018-03-02T03:02:39.617Z,18.62
2018-03-02T03:05:07.176Z,20.08
2018-03-02T03:07:34.496Z,19.08
2018-03-02T03:10:02.664Z,17.70
2018-03-02T03:12:30.166Z,18.27
2018-03-02T03:14:57.672Z,18.73
2018-03-02T03:17:25.161Z,18.10
2018-03-02T03:19:52.664Z,20.25
2018-03-02T03:22:20.161Z,18.20
2018-03-02T03:24:47.670Z,18.85
2018-03-02T03:27:15.180Z,18.52
2018-03-02T03:29:42.454Z,18.12
2018-03-02T03:32:10.020Z,19.30
2018-03-02T03:34:37.501Z,19.25
2018-03-02T03:37:05.004Z,18.00
2018-03-02T03:39:32.498Z,19.05
2018-03-02T03:42:00.004Z,20.23
2018-03-02T03:44:27.499Z,18.25
2018-03-02T03:46:54.989Z,17.73
2018-03-02T03:49:22.506Z,18.35
2018-03-02T03:51:50.007Z,19.20
2018-03-02T03:54:17.536Z,18.05
2018-03-02T03:56:45.066Z,21.40
2018-03-02T03:59:12.580Z,19.00
2018-03-02T04:01:41.075Z,20.15
2018-03-02T04:04:08.734Z,20.02
2018-03-02T04:06:36.037Z,18.85
2018-03-02T04:09:03.296Z,21.25
2018-03-02T04:11:30.825Z,19.35
2018-03-02T04:13:58.317Z,17.70
2018-03-02T04:16:25.840Z,18.65
2018-03-02T04:18:53.433Z,18.45
2018-03-02T04:21:21.875Z,18.40
2018-03-02T04:23:49.373Z,17.87
2018-03-02T04:26:16.875Z,19.30
2018-03-02T04:28:44.365Z,19.75
2018-03-02T04:31:11.893Z,17.73
2018-03-02T04:33:39.406Z,19.02
2018-03-02T04:36:06.903Z,17.02
2018-03-02T04:38:34.425Z,18.62
2018-03-02T04:41:01.922Z,18.87
2018-03-02T04:43:29.438Z,18.60
2018-03-02T04:45:56.930Z,18.95
2018-03-02T04:48:24.423Z,19.45
2018-03-02T04:50:51.917Z,19.75
2018-03-02T04:53:19.478Z,20.88
2018-03-02T04:55:46.987Z,19.80
2018-03-02T04:58:14.485Z,19.65
2018-03-02T05:00:43.001Z,19.48
2018-03-02T05:03:10.503Z,19.42
2018-03-02T05:05:37.998Z,19.35
2018-03-02T05:08:05.492Z,19.30
2018-03-02T05:10:32.986Z,21.25
2018-03-02T05:13:00.494Z,18.27
2018-03-02T05:15:27.993Z,19.27
2018-03-02T05:17:55.519Z,20.45
2018-03-02T05:20:23.022Z,19.15
2018-03-02T05:22:50.536Z,18.85
2018-03-02T05:25:18.033Z,19.83
2018-03-02T05:27:45.525Z,19.05
2018-03-02T05:30:13.024Z,19.90
2018-03-02T05:32:40.552Z,19.27
2018-03-02T05:35:09.007Z,19.35
2018-03-02T05:37:36.513Z,21.40
2018-03-02T05:40:04.038Z,20.52
2018-03-02T05:42:31.715Z,18.25
2018-03-02T05:45:01.151Z,19.83
2018-03-02T05:47:28.653Z,20.08
2018-03-02T05:49:56.148Z,21.00
2018-03-02T05:52:23.682Z,20.65
2018-03-02T05:54:51.198Z,21.48
2018-03-02T05:57:18.722Z,19.65
2018-03-02T05:59:46.214Z,20.23
2018-03-02T06:02:13.740Z,19.33
2018-03-02T06:04:41.298Z,19.60
2018-03-02T06:07:08.793Z,19.95
2018-03-02T06:09:36.138Z,22.98
2018-03-02T06:12:03.838Z,19.23
2018-03-02T06:14:31.335Z,20.02
2018-03-02T06:16:58.848Z,19.00
2018-03-02T06:19:26.359Z,18.95
2018-03-02T06:21:53.849Z,18.98
2018-03-02T06:24:21.368Z,19.85
2018-03-02T06:26:48.863Z,20.70
2018-03-02T06:29:16.357Z,20.05
2018-03-02T06:31:43.843Z,21.23
2018-03-02T06:34:11.349Z,19.95
2018-03-02T06:36:38.853Z,19.92
2018-03-02T06:39:06.361Z,19.48
2018-03-02T06:41:33.895Z,20.77
2018-03-02T06:44:01.395Z,20.02
2018-03-02T06:46:28.891Z,18.62
2018-03-02T06:48:56.427Z,20.67
2018-03-02T06:51:23.944Z,19.75
2018-03-02T06:53:51.466Z,20.75
2018-03-02T06:56:18.964Z,21.67
2018-03-02T06:58:46.453Z,20.27
2018-03-02T07:01:13.953Z,20.90
2018-03-02T07:03:41.445Z,18.92
2018-03-02T07:06:08.956Z,20.88
2018-03-02T07:08:36.462Z,19.92
2018-03-02T07:11:05.973Z,19.73
2018-03-02T07:13:33.482Z,18.75
2018-03-02T07:16:00.971Z,20.10
2018-03-02T07:18:28.465Z,20.05
2018-03-02T07:20:55.957Z,19.10
2018-03-02T07:23:23.472Z,20.10
2018-03-02T07:25:50.960Z,20.60
2018-03-02T07:28:18.503Z,19.85
2018-03-02T07:30:45.997Z,19.17
2018-03-02T07:33:13.513Z,19.58
2018-03-02T07:35:41.023Z,20.50
2018-03-02T07:38:08.556Z,19.52
2018-03-02T07:40:36.053Z,21.87
2018-03-02T07:43:03.567Z,21.83
2018-03-02T07:45:31.075Z,21.73
2018-03-02T07:47:58.882Z,21.50
2018-03-02T07:50:26.377Z,20.75
2018-03-02T07:52:53.885Z,19.77
2018-03-02T07:55:21.419Z,19.83
2018-03-02T07:57:48.949Z,20.00
2018-03-02T08:00:16.469Z,20.60
2018-03-02T08:02:43.966Z,20.48
2018-03-02T08:05:11.472Z,19.17
2018-03-02T08:07:38.972Z,18.80
2018-03-02T08:10:06.478Z,19.33
2018-03-02T08:12:33.998Z,20.90
2018-03-02T08:15:02.444Z,20.35
2018-03-02T08:17:29.932Z,19.25
2018-03-02T08:19:57.428Z,21.73
2018-03-02T08:22:24.972Z,22.27
2018-03-02T08:24:52.489Z,20.30
2018-03-02T08:27:19.988Z,18.95
2018-03-02T08:29:47.521Z,22.90
2018-03-02T08:32:15.013Z,20.58
2018-03-02T08:34:42.514Z,19.62
2018-03-02T08:37:10.022Z,20.20
2018-03-02T08:39:38.544Z,21.05
2018-03-02T08:42:06.144Z,21.25
2018-03-02T08:44:33.661Z,20.23
2018-03-02T08:47:00.977Z,21.45
2018-03-02T08:49:28.516Z,21.33
2018-03-02T08:51:56.004Z,21.05
2018-03-02T08:54:23.563Z,21.48
2018-03-02T08:56:51.056Z,20.12
2018-03-02T08:59:18.543Z,20.02
2018-03-02T09:01:46.042Z,21.15
2018-03-02T09:04:13.551Z,21.87
2018-03-02T09:06:41.058Z,22.52
2018-03-02T09:09:08.574Z,23.05
2018-03-02T09:11:36.094Z,20.90
2018-03-02T09:14:03.813Z,19.55
2018-03-02T09:16:31.375Z,21.85
2018-03-02T09:18:58.905Z,22.90
2018-03-02T09:21:26.396Z,21.23
2018-03-02T09:23:53.925Z,19.52
2018-03-02T09:26:21.426Z,20.52
2018-03-02T09:28:49.744Z,22.02
2018-03-02T09:31:17.241Z,20.77
2018-03-02T09:33:44.767Z,21.60
2018-03-02T09:36:12.270Z,22.65
2018-03-02T09:38:39.809Z,21.20
2018-03-02T09:41:07.302Z,20.77
2018-03-02T09:43:34.612Z,22.23
2018-03-02T09:46:02.114Z,22.15
2018-03-02T09:48:29.612Z,21.23
2018-03-02T09:50:57.113Z,21.80
2018-03-02T09:53:24.617Z,22.95
2018-03-02T09:55:53.153Z,24.05
2018-03-02T09:58:20.658Z,24.20
2018-03-02T10:00:48.353Z,23.50
2018-03-02T10:03:15.954Z,22.83
2018-03-02T10:05:43.451Z,22.77
2018-03-02T10:08:12.079Z,23.38
2018-03-02T10:10:39.577Z,23.10
2018-03-02T10:13:08.010Z,24.00
2018-03-02T10:15:35.553Z,24.40
2018-03-02T10:18:03.056Z,22.70
2018-03-02T10:20:30.586Z,22.05
2018-03-02T10:22:58.092Z,20.88
2018-03-02T10:25:25.617Z,23.10
2018-03-02T10:27:53.118Z,24.05
2018-03-02T10:30:20.675Z,21.87
2018-03-02T10:32:48.366Z,23.55
2018-03-02T10:35:15.890Z,22.62
2018-03-02T10:37:43.402Z,23.42
2018-03-02T10:40:11.927Z,24.00
2018-03-02T10:42:39.429Z,21.08
2018-03-02T10:45:06.947Z,22.40
2018-03-02T10:47:34.443Z,24.12
2018-03-02T10:50:01.977Z,23.30
2018-03-02T10:52:29.486Z,22.23
2018-03-02T10:54:56.997Z,21.90
2018-03-02T10:57:25.423Z,23.17
2018-03-02T10:59:53.938Z,23.95
2018-03-02T11:02:21.246Z,24.27
2018-03-02T11:04:48.584Z,23.95
2018-03-02T11:07:16.094Z,21.65
2018-03-02T11:09:43.661Z,24.15
2018-03-02T11:12:11.166Z,24.55
2018-03-02T11:14:38.680Z,23.05
2018-03-02T11:17:06.174Z,22.90
2018-03-02T11:19:33.698Z,23.02
2018-03-02T11:22:01.193Z,22.65
2018-03-02T11:24:28.710Z,23.83
2018-03-02T11:26:56.029Z,23.23
2018-03-02T11:29:23.539Z,24.33
2018-03-02T11:31:51.022Z,24.27
2018-03-02T11:34:18.536Z,23.00
2018-03-02T11:36:46.058Z,22.95
2018-03-02T11:39:13.604Z,26.50
2018-03-02T11:41:41.098Z,25.40
2018-03-02T11:44:08.601Z,24.25
2018-03-02T11:46:36.082Z,26.58
2018-03-02T11:49:03.601Z,23.35
2018-03-02T11:51:31.105Z,24.48
2018-03-02T11:53:58.630Z,24.48
2018-03-02T11:56:26.124Z,24.98
2018-03-02T11:58:53.695Z,24.58
2018-03-02T12:01:21.318Z,25.58
2018-03-02T12:03:48.813Z,25.67
2018-03-02T12:06:16.134Z,24.83
2018-03-02T12:08:43.627Z,25.10
2018-03-02T12:11:11.117Z,25.75
2018-03-02T12:13:38.608Z,24.98
2018-03-02T12:16:06.117Z,24.08
2018-03-02T12:18:33.608Z,25.40
2018-03-02T12:21:01.125Z,24.20
2018-03-02T12:23:28.634Z,25.67
2018-03-02T12:25:57.132Z,24.98
2018-03-02T12:28:25.587Z,25.80
2018-03-02T12:30:53.106Z,27.98
2018-03-02T12:33:20.602Z,25.23
2018-03-02T12:35:48.087Z,26.55
2018-03-02T12:38:15.578Z,27.30
2018-03-02T12:40:43.073Z,27.25
2018-03-02T12:43:10.564Z,25.85
2018-03-02T12:45:38.057Z,27.45
2018-03-02T12:48:05.552Z,28.42
2018-03-02T12:50:34.013Z,29.90
2018-03-02T12:53:01.503Z,28.90
2018-03-02T12:55:29.029Z,29.33
2018-03-02T12:57:56.518Z,27.35
2018-03-02T13:00:24.017Z,29.55
2018-03-02T13:02:51.532Z,29.67
2018-03-02T13:05:19.025Z,30.73
2018-03-02T13:07:46.285Z,29.05
2018-03-02T13:10:13.787Z,31.17
2018-03-02T13:12:41.007Z,32.93
2018-03-02T13:15:08.220Z,30.47
2018-03-02T13:17:35.434Z,32.90
2018-03-02T13:20:02.449Z,32.00
2018-03-02T13:22:36.302Z,30.80
2018-03-02T13:25:03.817Z,30.62
2018-03-02T13:27:36.892Z,31.08
2018-03-02T13:30:04.376Z,28.50
2018-03-02T13:32:31.864Z,27.98
2018-03-02T13:35:04.770Z,30.27
2018-03-02T13:37:32.274Z,30.20
2018-03-02T13:40:05.570Z,30.75
2018-03-02T13:42:34.075Z,31.17
2018-03-02T13:45:01.574Z,30.12
2018-03-02T13:47:34.551Z,30.17
2018-03-02T13:50:02.445Z,29.90
2018-03-02T13:52:29.683Z,32.40
2018-03-02T13:54:56.893Z,30.57
2018-03-02T13:57:29.757Z,32.63
2018-03-02T13:59:57.248Z,31.12
2018-03-02T14:02:31.342Z,31.35
2018-03-02T14:05:01.342Z,30.55
2018-03-02T14:07:28.862Z,30.05
2018-03-02T14:09:56.361Z,30.17
2018-03-02T14:12:23.883Z,28.95
2018-03-02T14:14:51.376Z,27.33
2018-03-02T14:17:18.899Z,27.92
2018-03-02T14:19:46.390Z,27.80
2018-03-02T14:22:14.896Z,27.70
2018-03-02T14:24:42.399Z,25.77
2018-03-02T14:27:09.914Z,24.75
2018-03-02T14:29:37.419Z,26.58
2018-03-02T14:32:04.938Z,26.02
2018-03-02T14:34:32.430Z,25.88
2018-03-02T14:36:59.933Z,25.52
2018-03-02T14:39:27.429Z,26.15
2018-03-02T14:41:54.950Z,26.33
2018-03-02T14:44:22.444Z,26.33
2018-03-02T14:46:50.965Z,28.98
2018-03-02T14:49:18.461Z,25.90
2018-03-02T14:51:45.973Z,24.87
2018-03-02T14:54:13.475Z,26.08
2018-03-02T14:56:41.005Z,24.87
2018-03-02T14:59:08.516Z,24.77
2018-03-02T15:01:36.027Z,25.42
2018-03-02T15:04:03.514Z,26.75
2018-03-02T15:06:31.041Z,24.27
2018-03-02T15:08:58.545Z,24.83
2018-03-02T15:11:27.973Z,24.20
2018-03-02T15:13:55.462Z,25.15
2018-03-02T15:16:22.974Z,23.58
2018-03-02T15:18:50.469Z,24.70
2018-03-02T15:21:17.985Z,24.25
2018-03-02T15:23:45.482Z,24.48
2018-03-02T15:26:12.998Z,24.77
2018-03-02T15:28:40.496Z,25.30
2018-03-02T15:31:08.024Z,24.08
2018-03-02T15:33:35.529Z,23.73
2018-03-02T15:36:03.031Z,23.12
2018-03-02T15:38:30.545Z,23.87
2018-03-02T15:40:58.062Z,22.90
2018-03-02T15:43:25.562Z,24.35
2018-03-02T15:45:53.064Z,23.98
2018-03-02T15:48:20.563Z,24.70
2018-03-02T15:50:48.080Z,22.45
2018-03-02T15:53:15.564Z,25.65
2018-03-02T15:55:43.066Z,23.83
2018-03-02T15:58:10.555Z,25.45
2018-03-02T16:00:38.063Z,24.23
2018-03-02T16:03:05.575Z,26.55
2018-03-02T16:05:33.060Z,25.90
2018-03-02T16:08:00.764Z,21.85
2018-03-02T16:10:28.265Z,26.87
2018-03-02T16:12:55.765Z,25.10
2018-03-02T16:15:23.316Z,23.12
2018-03-02T16:17:50.826Z,24.63
2018-03-02T16:20:18.329Z,23.70
2018-03-02T16:22:45.827Z,25.58
2018-03-02T16:25:13.338Z,23.73
2018-03-02T16:27:40.849Z,26.30
2018-03-02T16:30:08.390Z,24.48
2018-03-02T16:32:35.943Z,26.55
2018-03-02T16:35:03.597Z,24.65
2018-03-02T16:37:31.097Z,23.27
2018-03-02T16:39:58.592Z,24.58
2018-03-02T16:42:26.093Z,25.12
2018-03-02T16:44:53.593Z,25.30
2018-03-02T16:47:21.115Z,27.77
2018-03-02T16:49:48.613Z,24.25
2018-03-02T16:52:16.133Z,26.12
2018-03-02T16:54:43.628Z,24.02
2018-03-02T16:57:11.156Z,25.40
2018-03-02T16:59:38.682Z,23.60
2018-03-02T17:02:06.209Z,26.02
2018-03-02T17:04:33.713Z,24.20
2018-03-02T17:07:01.234Z,24.08
2018-03-02T17:09:28.729Z,24.23
2018-03-02T17:11:56.251Z,25.12
2018-03-02T17:14:24.479Z,24.70
2018-03-02T17:16:51.968Z,25.77
2018-03-02T17:19:19.475Z,24.80
2018-03-02T17:21:46.977Z,26.25
2018-03-02T17:24:14.494Z,23.40
2018-03-02T17:26:41.987Z,26.65
2018-03-02T17:29:09.472Z,28.25
2018-03-02T17:31:36.969Z,25.85
2018-03-02T17:34:04.467Z,25.67
2018-03-02T17:36:31.964Z,24.70
2018-03-02T17:38:59.453Z,26.50
2018-03-02T17:41:26.757Z,26.40
2018-03-02T17:43:54.250Z,26.75
2018-03-02T17:46:21.738Z,25.98
2018-03-02T17:48:49.232Z,23.17
2018-03-02T17:51:16.714Z,26.67
2018-03-02T17:53:44.207Z,26.48
2018-03-02T17:56:11.744Z,26.70
2018-03-02T17:58:39.232Z,26.35
2018-03-02T18:01:06.761Z,29.35
2018-03-02T18:03:34.276Z,30.35
2018-03-02T18:06:01.780Z,25.83
2018-03-02T18:08:29.286Z,25.37
2018-03-02T18:10:56.827Z,26.37
2018-03-02T18:13:25.306Z,24.55
2018-03-02T18:15:52.805Z,27.87
2018-03-02T18:18:20.295Z,28.62
2018-03-02T18:20:47.800Z,26.37
2018-03-02T18:23:16.311Z,31.27
2018-03-02T18:25:43.818Z,29.40
2018-03-02T18:28:11.326Z,26.33
2018-03-02T18:30:38.813Z,27.70
2018-03-02T18:33:06.367Z,27.15
2018-03-02T18:35:34.034Z,28.83
2018-03-02T18:38:01.545Z,30.15
2018-03-02T18:40:29.043Z,29.73
2018-03-02T18:42:56.854Z,28.52
2018-03-02T18:45:24.411Z,29.02
2018-03-02T18:47:51.968Z,28.30
2018-03-02T18:50:19.718Z,29.17
2018-03-02T18:52:47.584Z,29.40
2018-03-02T18:55:15.252Z,27.50
2018-03-02T18:57:42.838Z,30.15
2018-03-02T19:00:10.359Z,30.27
2018-03-02T19:02:37.861Z,29.52
2018-03-02T19:05:05.379Z,29.55
2018-03-02T19:07:32.897Z,27.42
2018-03-02T19:10:00.417Z,28.95
2018-03-02T19:12:27.922Z,26.75
2018-03-02T19:14:57.393Z,29.37
2018-03-02T19:17:24.894Z,29.75
2018-03-02T19:19:53.609Z,28.80
2018-03-02T19:22:21.113Z,27.60
2018-03-02T19:24:48.638Z,30.37
2018-03-02T19:27:16.158Z,29.08
2018-03-02T19:29:43.648Z,29.08
2018-03-02T19:32:11.152Z,30.77
2018-03-02T19:34:38.667Z,33.97
2018-03-02T19:37:06.160Z,33.60
2018-03-02T19:39:33.682Z,29.95
2018-03-02T19:42:01.006Z,28.20
2018-03-02T19:44:28.542Z,30.30
2018-03-02T19:46:57.008Z,29.60
2018-03-02T19:49:24.533Z,30.35
2018-03-02T19:51:52.049Z,28.87
2018-03-02T19:54:19.550Z,30.30
2018-03-02T19:56:47.081Z,30.80
2018-03-02T19:59:14.576Z,31.92
2018-03-02T20:01:43.620Z,30.83
2018-03-02T20:04:11.120Z,30.77
2018-03-02T20:06:38.622Z,32.00
2018-03-02T20:09:06.137Z,29.77
2018-03-02T20:11:33.646Z,30.55
2018-03-02T20:14:01.169Z,30.10
2018-03-02T20:16:28.664Z,30.70
2018-03-02T20:18:56.207Z,31.15
2018-03-02T20:21:23.705Z,29.75
2018-03-02T20:23:51.197Z,29.17
2018-03-02T20:26:18.690Z,30.80
2018-03-02T20:28:46.198Z,29.85
2018-03-02T20:31:13.713Z,28.50
2018-03-02T20:33:41.034Z,32.47
2018-03-02T20:36:08.564Z,32.13
2018-03-02T20:38:36.138Z,33.40
2018-03-02T20:41:03.631Z,33.08
2018-03-02T20:43:31.201Z,31.98
2018-03-02T20:45:58.697Z,31.55
2018-03-02T20:48:28.173Z,33.20
2018-03-02T20:50:55.668Z,32.97
2018-03-02T20:53:23.185Z,31.67
2018-03-02T20:55:50.921Z,33.17
2018-03-02T20:58:18.464Z,35.28
2018-03-02T21:00:46.123Z,31.73
2018-03-02T21:03:13.625Z,32.83
2018-03-02T21:05:41.152Z,34.03
2018-03-02T21:08:08.672Z,33.15
2018-03-02T21:10:36.179Z,30.70
2018-03-02T21:13:03.676Z,32.88
2018-03-02T21:15:31.177Z,33.75
2018-03-02T21:17:58.692Z,32.85
2018-03-02T21:20:26.235Z,30.77
2018-03-02T21:22:53.808Z,30.67
2018-03-02T21:25:21.457Z,31.08
2018-03-02T21:27:48.978Z,33.65
2018-03-02T21:30:16.476Z,31.90
2018-03-02T21:32:44.011Z,31.95
2018-03-02T21:35:11.516Z,29.58
2018-03-02T21:37:39.048Z,32.17
2018-03-02T21:40:06.554Z,31.30
2018-03-02T21:42:34.086Z,30.50
2018-03-02T21:45:01.612Z,30.80
2018-03-02T21:47:30.134Z,32.88
2018-03-02T21:49:57.629Z,29.80
2018-03-02T21:52:25.155Z,30.80
2018-03-02T21:54:52.647Z,30.90
2018-03-02T21:57:20.165Z,30.12
2018-03-02T21:59:47.648Z,31.02
2018-03-02T22:02:15.138Z,30.25
2018-03-02T22:04:42.682Z,31.42
2018-03-02T22:07:10.336Z,31.20
2018-03-02T22:09:37.857Z,31.83
2018-03-02T22:12:05.346Z,32.55
2018-03-02T22:14:32.845Z,32.55
2018-03-02T22:17:00.411Z,31.60
2018-03-02T22:19:28.069Z,30.83
2018-03-02T22:21:55.560Z,32.05
2018-03-02T22:24:23.111Z,30.58
2018-03-02T22:26:50.769Z,31.27
2018-03-02T22:29:18.266Z,32.92
2018-03-02T22:31:45.785Z,29.75
2018-03-02T22:34:14.308Z,31.00
2018-03-02T22:36:42.742Z,29.77
2018-03-02T22:39:10.258Z,30.75
2018-03-02T22:41:37.752Z,30.90
2018-03-02T22:44:05.258Z,30.15
2018-03-02T22:46:32.777Z,31.87
2018-03-02T22:49:00.279Z,31.73
2018-03-02T22:51:27.780Z,33.33
2018-03-02T22:53:55.308Z,32.15
2018-03-02T22:56:22.811Z,32.28
2018-03-02T22:58:50.332Z,32.28
2018-03-02T23:01:17.837Z,31.10
2018-03-02T23:03:45.365Z,32.65
2018-03-02T23:06:12.865Z,32.03
2018-03-02T23:08:40.483Z,31.12
2018-03-02T23:11:08.168Z,32.22
2018-03-02T23:13:35.661Z,31.62
2018-03-02T23:16:05.116Z,33.45
2018-03-02T23:18:32.633Z,31.95
2018-03-02T23:21:00.138Z,29.20
2018-03-02T23:23:27.640Z,30.85
2018-03-02T23:25:55.156Z,33.15
2018-03-02T23:28:22.665Z,33.00
2018-03-02T23:30:51.117Z,31.80
2018-03-02T23:33:19.653Z,33.50
2018-03-02T23:35:47.153Z,33.00
2018-03-02T23:38:14.651Z,31.92
2018-03-02T23:40:42.166Z,34.35
2018-03-02T23:43:10.620Z,31.48
2018-03-02T23:45:38.136Z,32.60
2018-03-02T23:48:05.650Z,31.05
2018-03-02T23:50:33.171Z,32.70
2018-03-02T23:53:00.662Z,34.75
2018-03-02T23:55:28.168Z,32.65
2018-03-02T23:57:55.669Z,33.05
